Flight Track Log - Related Links

Times and Time Zones

All times are in EDT time to prevent confusion due to time zone crossing. See the DAL38 flight status page for this flight to view local times or setup timezone preferences in your user account.

Time Position Orientation Groundspeed Altitude Reporting Facility
EDT Latitude Longitude Course Direction KTS MPH feet Rate Location/Type
Sat 02:47:18 PM 28.4167 -81.3000 North 163 188 600  Level Orlando TRACON
Sat 02:48:00 PM 28.3833 -81.3167 204° Southwest 205 236 2,100 2,588 Climbing Orlando TRACON
Sat 02:49:00 PM 28.3167 -81.3667 213° Southwest 274 315 5,000 3,255 Climbing Orlando TRACON
Sat 02:50:00 PM 28.7432 -81.3419 353° North  Level FlightAware Approximate
Sat 02:50:33 PM 28.3900 -81.4344 321° Northwest 254 292 10,400  Level Jacksonville Center
Sat 02:51:00 PM 28.8529 -81.3539 350° North  Level FlightAware Approximate
Sat 02:51:33 PM 28.4672 -81.4286 North 244 281 13,500  Level Jacksonville Center
Sat 02:52:00 PM 28.9624 -81.3667 North  Level FlightAware Approximate
Sat 02:52:33 PM 28.5464 -81.4272 North 265 305 16,000  Level Jacksonville Center
Sat 02:53:33 PM 28.6364 -81.4497 348° North 293 337 17,500 1,200 Climbing Jacksonville Center
Sat 02:54:33 PM 28.7389 -81.4789 346° North 338 389 18,400 1,250 Climbing Jacksonville Center
Sat 02:55:33 PM 28.8561 -81.5106 347° North 390 449 20,000 1,650 Climbing Jacksonville Center
Sat 02:56:33 PM 28.9778 -81.5467 345° North 427 491 21,700 1,750 Climbing Jacksonville Center
Sat 02:57:33 PM 29.1053 -81.5808 347° North 448 516 23,500 1,650 Climbing Jacksonville Center
Sat 02:58:33 PM 29.2039 -81.6150 343° North 457 526 25,000 1,550 Climbing Jacksonville Center
Sat 02:59:33 PM 29.3503 -81.6514 348° North 468 539 26,600 1,500 Climbing Jacksonville Center
Sat 03:00:33 PM 29.4842 -81.6878 347° North 475 547 28,000 1,650 Climbing Jacksonville Center
Sat 03:01:33 PM 29.6203 -81.7267 346° North 487 560 29,900 1,650 Climbing Jacksonville Center
Sat 03:02:33 PM 29.7542 -81.7633 347° North 487 560 31,300 1,550 Climbing Jacksonville Center
Sat 03:03:33 PM 29.8881 -81.8025 346° North 492 566 33,000 1,750 Climbing Jacksonville Center
Sat 03:04:33 PM 30.0219 -81.8394 347° North 486 559 34,800 1,000 Climbing Jacksonville Center
Sat 03:05:33 PM 30.1539 -81.8717 348° North 486 559 35,000 100 Climbing Jacksonville Center
Sat 03:06:33 PM 30.2836 -81.9158 344° North 486 559 35,000  Level Jacksonville Center
Sat 03:07:33 PM 30.4178 -81.9675 342° North 498 573 35,000  Level Jacksonville Center
Sat 03:08:33 PM 30.5453 -82.0169 342° North 498 573 35,000  Level Jacksonville Center
Sat 03:09:33 PM 30.6878 -82.0786 340° North 498 573 35,000  Level Jacksonville Center
Sat 03:10:33 PM 30.8156 -82.1306 341° North 491 565 35,000  Level Jacksonville Center
Sat 03:11:33 PM 30.9411 -82.1806 341° North 486 559 35,000  Level Jacksonville Center
Sat 03:12:33 PM 31.0686 -82.2306 341° North 486 559 35,000  Level Jacksonville Center
Sat 03:13:33 PM 31.1964 -82.2806 341° North 486 559 35,000  Level Jacksonville Center
Sat 03:14:33 PM 31.3239 -82.3333 341° North 486 559 35,000  Level Jacksonville Center
Sat 03:15:33 PM 31.4367 -82.3714 344° North 477 549 35,000  Level Jacksonville Center
Sat 03:17:08 PM 31.6489 -82.4606 340° North 480 552 35,000  Level Atlanta Center
Sat 03:18:08 PM 31.7767 -82.5094 342° North 480 552 35,000  Level Atlanta Center
Sat 03:19:08 PM 31.9089 -82.5636 341° North 480 552 35,000  Level Atlanta Center
Sat 03:20:08 PM 32.0369 -82.6153 341° North 480 552 35,000  Level Atlanta Center
Sat 03:21:08 PM 32.1628 -82.6672 341° North 486 559 35,000 -600 Level Atlanta Center
Sat 03:22:08 PM 32.2844 -82.7342 335° Northwest 486 559 33,800 -1,650 Descending Atlanta Center
Sat 03:23:08 PM 32.3794 -82.8361 318° Northwest 468 539 31,700 -2,200 Descending Atlanta Center
Sat 03:24:08 PM 32.4658 -82.9383 315° West 468 539 29,400 -2,200 Descending Atlanta Center
Sat 03:25:08 PM 32.5586 -83.0481 315° West 468 539 27,300 -2,200 Descending Atlanta Center
Sat 03:26:08 PM 32.6514 -83.1531 316° Northwest 468 539 25,000 -1,800 Descending Atlanta Center
Sat 03:27:08 PM 32.7419 -83.2583 316° Northwest 458 527 23,700 -1,850 Descending Atlanta Center
Sat 03:28:08 PM 32.8281 -83.3567 316° Northwest 447 514 21,300 -2,450 Descending Atlanta Center
Sat 03:29:08 PM 32.9100 -83.4547 315° West 429 494 18,800 -2,350 Descending Atlanta Center
Sat 03:30:08 PM 32.9897 -83.5461 316° Northwest 415 478 16,600 -2,250 Descending Atlanta Center
Sat 03:31:08 PM 33.0650 -83.6397 314° West 400 460 14,300 -2,050 Descending Atlanta Center
Sat 03:32:08 PM 33.1425 -83.7286 316° Northwest 387 445 12,500 -1,150 Descending Atlanta Center
Sat 03:33:08 PM 33.2075 -83.8056 315° West 350 403 12,000 -800 Descending Atlanta Center
Sat 03:34:08 PM 33.2619 -83.8772 312° West 306 352 10,900 -1,250 Descending Atlanta Center
Sat 03:35:08 PM 33.3100 -83.9519 308° West 286 329 9,500 -1,300 Descending Atlanta Center
Sat 03:36:08 PM 33.3539 -84.0239 306° West 265 305 8,300 -1,350 Descending Atlanta Center
Sat 03:37:08 PM 33.4019 -84.0661 324° Northwest 228 262 6,800 -1,700 Descending Atlanta Center
Sat 03:38:08 PM 33.4583 -84.0164 36° Northeast 212 244 4,900 -1,400 Descending Atlanta Center
Sat 03:39:08 PM 33.5144 -83.9792 29° Northeast 226 260 4,000 -450 Descending Atlanta Center
Sat 03:40:08 PM 33.5750 -83.9814 358° North 216 249 4,000  Level Atlanta Center
Sat 03:42:22 PM 33.6167 -84.0833 296° West 176 203 4,000  Level Atlanta TRACON
Sat 03:43:22 PM 33.6167 -84.1333 270° West 183 211 4,000  Level Atlanta TRACON
Sat 03:44:28 PM 33.6167 -84.2000 270° West 177 204 4,000  Level Atlanta TRACON

Login

Don't have an account? Register now (free) for customized features, flight alerts, and more!